createdAt,value
2022-10-21T00:22:47.488Z,11.54
2022-10-21T00:23:47.461Z,11.54
2022-10-21T00:24:47.358Z,11.45
2022-10-21T00:25:47.260Z,11.51
2022-10-21T02:02:23.309Z,11.78
2022-10-21T02:03:23.296Z,11.81
2022-10-21T02:04:24.483Z,11.83
2022-10-21T02:05:24.507Z,11.88
2022-10-21T02:06:24.508Z,11.90
2022-10-21T02:07:24.593Z,11.81
2022-10-21T02:08:26.188Z,11.84
2022-10-21T02:09:24.539Z,11.80
2022-10-21T02:10:24.449Z,11.91
2022-10-21T02:11:24.470Z,11.86
2022-10-21T02:13:42.989Z,11.80
2022-10-21T02:14:42.977Z,11.86
2022-10-21T02:15:44.197Z,11.88
2022-10-21T02:16:44.227Z,11.87
2022-10-21T02:17:44.157Z,11.91
2022-10-21T02:18:45.040Z,11.84
2022-10-21T02:19:44.989Z,11.87
2022-10-21T02:20:44.214Z,11.94
2022-10-21T02:23:03.122Z,11.95
2022-10-21T02:24:03.123Z,12.00
2022-10-21T02:25:04.277Z,12.02
2022-10-21T02:26:04.238Z,12.04
2022-10-21T02:27:04.253Z,11.99
2022-10-21T02:28:04.235Z,12.09
2022-10-21T02:29:04.301Z,12.09
2022-10-21T02:30:04.261Z,12.10
2022-10-21T02:31:04.212Z,12.03
2022-10-21T02:32:04.228Z,12.15
2022-10-21T02:33:04.203Z,12.04
2022-10-21T02:34:04.213Z,12.04
2022-10-21T02:35:04.249Z,12.20
2022-10-21T02:36:04.257Z,12.03
2022-10-21T02:37:04.216Z,12.15
2022-10-21T02:38:04.176Z,12.17
2022-10-21T02:39:04.177Z,12.15
2022-10-21T02:40:10.885Z,12.07
2022-10-21T02:41:04.173Z,12.06
2022-10-21T02:42:04.142Z,12.02
2022-10-21T02:43:04.154Z,12.04
2022-10-21T02:44:04.137Z,11.97
2022-10-21T02:45:04.112Z,11.78
2022-10-21T02:46:05.144Z,11.81
2022-10-21T02:47:04.171Z,11.73
2022-10-21T02:48:04.104Z,11.70
2022-10-21T02:49:04.101Z,11.77
2022-10-21T02:50:04.073Z,11.70
2022-10-21T02:51:04.074Z,11.68
2022-10-21T02:52:04.085Z,11.69
2022-10-21T02:53:04.077Z,11.72
2022-10-21T02:54:04.067Z,11.70
2022-10-21T02:55:04.051Z,11.62
2022-10-21T02:56:04.055Z,11.59
2022-10-21T02:57:04.070Z,11.63
2022-10-21T02:58:04.041Z,11.57
2022-10-21T02:59:04.035Z,11.63
2022-10-21T03:00:04.025Z,11.70
2022-10-21T03:01:04.068Z,11.63
2022-10-21T03:02:04.032Z,11.63
2022-10-21T03:03:04.005Z,11.63
2022-10-21T03:04:03.970Z,11.57
2022-10-21T03:05:04.988Z,11.62
2022-10-21T03:06:03.957Z,11.55
2022-10-21T03:07:03.989Z,11.45
2022-10-21T03:08:03.964Z,11.54
2022-10-21T03:09:03.979Z,11.57
2022-10-21T03:10:03.966Z,11.55
2022-10-21T03:11:03.962Z,11.59
2022-10-21T03:12:03.942Z,11.52
2022-10-21T03:13:03.894Z,11.55
2022-10-21T03:14:03.916Z,11.54
2022-10-21T03:15:03.956Z,11.51
2022-10-21T03:16:03.896Z,11.54
2022-10-21T03:17:03.897Z,11.54
2022-10-21T03:18:03.860Z,11.62
2022-10-21T03:19:03.880Z,11.54
2022-10-21T03:20:03.876Z,11.62
2022-10-21T03:21:03.906Z,11.70
2022-10-21T03:22:03.849Z,11.73
2022-10-21T03:23:03.835Z,11.78
2022-10-21T03:24:05.804Z,11.87
2022-10-21T03:25:05.818Z,11.80
2022-10-21T03:26:03.835Z,11.90
2022-10-21T03:27:03.786Z,11.83
2022-10-21T03:28:03.804Z,11.95
2022-10-21T03:29:03.785Z,11.90
2022-10-21T03:30:03.798Z,11.84
2022-10-21T03:31:03.835Z,11.86
2022-10-21T03:32:03.758Z,12.03
2022-10-21T03:33:03.755Z,11.90
2022-10-21T03:34:03.759Z,11.91
2022-10-21T03:35:03.728Z,11.83
2022-10-21T03:36:03.730Z,11.97
2022-10-21T03:37:03.750Z,11.94
2022-10-21T03:38:03.726Z,11.97
2022-10-21T03:39:03.712Z,12.02
2022-10-21T03:40:04.635Z,12.02
2022-10-21T03:41:03.694Z,11.95
2022-10-21T03:42:03.694Z,12.00
2022-10-21T03:43:03.685Z,12.02
2022-10-21T03:44:03.685Z,12.00
2022-10-21T03:45:03.679Z,12.02
2022-10-21T03:46:03.669Z,12.00
2022-10-21T03:47:03.660Z,12.06
2022-10-21T04:02:44.441Z,12.15
2022-10-21T04:03:44.421Z,12.18
2022-10-21T04:04:44.401Z,12.09
2022-10-21T04:05:44.391Z,12.07
2022-10-21T04:06:45.500Z,12.03
2022-10-21T04:07:49.351Z,12.04
2022-10-21T04:08:47.540Z,11.88
2022-10-21T04:09:45.523Z,11.87
2022-10-21T04:10:45.568Z,11.94
2022-10-21T04:11:45.562Z,11.94
2022-10-21T04:12:45.478Z,11.90
2022-10-21T04:13:45.550Z,11.99
2022-10-21T04:14:45.477Z,11.84
2022-10-21T04:15:45.519Z,11.80
2022-10-21T04:16:47.929Z,11.84
2022-10-21T04:17:45.489Z,11.73
2022-10-21T04:18:45.459Z,11.73
2022-10-21T04:19:45.455Z,11.80
2022-10-21T04:20:45.482Z,11.68
2022-10-21T04:21:45.493Z,11.70
2022-10-21T04:22:45.445Z,11.70
2022-10-21T04:23:45.379Z,11.78
2022-10-21T04:24:45.422Z,11.66
2022-10-21T04:25:52.054Z,11.78
2022-10-21T04:26:45.425Z,11.65
2022-10-21T04:27:45.384Z,11.73
2022-10-21T04:28:45.359Z,11.57
2022-10-21T04:29:45.344Z,11.63
2022-10-21T04:30:45.344Z,11.63
2022-10-21T04:31:45.446Z,11.63
2022-10-21T04:32:45.345Z,11.60
2022-10-21T04:33:45.350Z,11.62
2022-10-21T04:34:45.307Z,11.54
2022-10-21T04:35:45.337Z,11.54
2022-10-21T04:36:45.302Z,11.63
2022-10-21T04:37:45.368Z,11.59
2022-10-21T04:38:45.313Z,11.62
2022-10-21T04:39:45.300Z,11.57
2022-10-21T04:40:45.293Z,11.62
2022-10-21T04:41:45.325Z,11.60
2022-10-21T04:42:45.358Z,11.65
2022-10-21T04:43:45.282Z,11.60
2022-10-21T04:44:45.246Z,11.60
2022-10-21T04:45:45.225Z,11.60
2022-10-21T04:46:45.231Z,11.65
2022-10-21T04:47:45.246Z,11.60
2022-10-21T04:48:45.225Z,11.63
2022-10-21T04:49:45.220Z,11.75
2022-10-21T04:50:45.203Z,11.73
2022-10-21T04:51:45.174Z,11.72
2022-10-21T04:52:45.195Z,11.73
2022-10-21T04:53:45.225Z,11.72
2022-10-21T04:54:45.168Z,11.75
2022-10-21T04:55:45.168Z,11.72
2022-10-21T04:56:45.190Z,11.77
2022-10-21T04:57:45.182Z,11.78
2022-10-21T04:58:45.165Z,11.83
2022-10-21T04:59:45.134Z,11.88
2022-10-21T05:00:45.148Z,11.95
2022-10-21T05:01:45.114Z,11.95
2022-10-21T05:02:45.087Z,12.03
2022-10-21T05:03:45.126Z,11.97
2022-10-21T05:04:45.127Z,11.88
2022-10-21T05:05:45.115Z,11.84
2022-10-21T05:06:45.112Z,11.94
2022-10-21T05:07:45.061Z,11.88
2022-10-21T05:08:45.110Z,11.78
2022-10-21T05:09:45.078Z,11.65
2022-10-21T05:10:45.053Z,11.65
2022-10-21T05:11:45.061Z,11.63
2022-10-21T05:12:45.048Z,11.57
2022-10-21T05:13:45.105Z,11.52
2022-10-21T05:14:45.029Z,11.55
2022-10-21T05:15:45.526Z,11.54
2022-10-21T05:16:45.529Z,11.54
2022-10-21T05:17:45.020Z,11.48
2022-10-21T05:18:44.958Z,11.52
2022-10-21T05:19:45.044Z,11.59
2022-10-21T05:20:44.995Z,11.57
2022-10-21T05:21:44.974Z,11.59
2022-10-21T05:22:44.958Z,11.57
2022-10-21T05:23:44.938Z,11.60
2022-10-21T05:24:44.939Z,11.52
2022-10-21T05:25:44.913Z,11.57
2022-10-21T05:26:44.931Z,11.51
2022-10-21T05:27:44.959Z,11.60
2022-10-21T05:28:44.933Z,11.62
2022-10-21T05:29:44.898Z,11.68
2022-10-21T05:30:44.895Z,11.60
2022-10-21T05:31:44.890Z,11.60
2022-10-21T05:32:44.901Z,11.68
2022-10-21T05:33:44.862Z,11.66
2022-10-21T05:34:44.843Z,11.60
2022-10-21T05:35:44.911Z,11.57
2022-10-21T05:36:44.860Z,11.50
2022-10-21T05:37:44.866Z,11.55
2022-10-21T05:38:44.810Z,11.54
2022-10-21T05:39:44.840Z,11.44
2022-10-21T05:40:44.784Z,11.45
2022-10-21T05:41:47.814Z,11.36
2022-10-21T05:42:44.801Z,11.48
2022-10-21T05:43:44.818Z,11.45
2022-10-21T05:44:44.770Z,11.45
2022-10-21T05:45:44.781Z,11.33
2022-10-21T05:46:44.780Z,11.40
2022-10-21T05:47:44.732Z,11.44
2022-10-21T05:48:44.794Z,11.47
2022-10-21T05:49:44.757Z,11.47
2022-10-21T05:50:44.735Z,11.29
2022-10-21T05:51:44.760Z,11.22
2022-10-21T05:52:44.744Z,11.22
2022-10-21T05:53:44.705Z,11.26
2022-10-21T05:54:44.700Z,11.19
2022-10-21T05:55:44.696Z,11.12
2022-10-21T05:56:44.703Z,11.17
2022-10-21T05:57:44.752Z,11.12
2022-10-21T05:58:44.666Z,11.00
2022-10-21T05:59:44.686Z,11.07
2022-10-21T06:00:44.736Z,11.00
2022-10-21T06:01:44.669Z,11.00
2022-10-21T06:02:44.632Z,11.10
2022-10-21T06:03:44.633Z,11.10
2022-10-21T06:04:44.619Z,11.04
2022-10-21T06:05:44.622Z,11.15
2022-10-21T06:06:44.635Z,11.02
2022-10-21T06:07:44.642Z,11.05
2022-10-21T06:08:44.645Z,10.92
2022-10-21T06:09:44.598Z,10.89
2022-10-21T06:10:44.567Z,10.89
2022-10-21T06:11:44.594Z,10.84
2022-10-21T06:12:44.576Z,10.86
2022-10-21T06:13:44.539Z,10.82
2022-10-21T06:14:44.557Z,10.86
2022-10-21T06:15:48.615Z,10.78
2022-10-21T06:16:46.529Z,10.84
2022-10-21T06:17:44.584Z,10.78
2022-10-21T06:18:44.548Z,10.79
2022-10-21T06:19:47.299Z,10.82
2022-10-21T06:20:45.502Z,10.81
2022-10-21T06:21:44.480Z,10.87
2022-10-21T06:22:44.570Z,10.89
2022-10-21T06:23:44.497Z,10.99
2022-10-21T06:24:44.471Z,10.90
2022-10-21T06:25:44.449Z,11.14
2022-10-21T06:26:45.495Z,11.05
2022-10-21T06:27:44.483Z,11.12
2022-10-21T06:28:44.489Z,11.07
2022-10-21T06:29:44.464Z,11.15
2022-10-21T06:30:44.409Z,11.14
2022-10-21T06:31:44.432Z,11.14
2022-10-21T06:32:44.388Z,11.23
2022-10-21T06:33:44.435Z,11.27
2022-10-21T06:34:44.408Z,11.26
2022-10-21T06:35:44.385Z,11.44
2022-10-21T06:36:44.375Z,11.36
2022-10-21T06:37:44.389Z,11.41
2022-10-21T06:38:44.338Z,11.32
2022-10-21T06:39:44.352Z,11.35
2022-10-21T06:40:44.340Z,11.44
2022-10-21T06:41:45.156Z,11.44
2022-10-21T06:42:44.336Z,11.41
2022-10-21T06:43:44.330Z,11.41
2022-10-21T06:44:44.348Z,11.36
2022-10-21T06:45:44.320Z,11.26
2022-10-21T06:46:44.273Z,11.25
2022-10-21T06:47:44.282Z,11.23
2022-10-21T06:48:44.276Z,11.32
2022-10-21T06:49:44.282Z,11.35
2022-10-21T06:50:44.277Z,11.32
2022-10-21T06:51:44.246Z,11.23
2022-10-21T06:52:44.254Z,11.15
2022-10-21T06:53:44.228Z,11.26
2022-10-21T06:54:44.268Z,11.32
2022-10-21T06:55:44.238Z,11.40
2022-10-21T06:56:44.218Z,11.48
2022-10-21T06:57:44.243Z,11.60
2022-10-21T06:58:44.202Z,11.45
2022-10-21T06:59:44.173Z,11.52
2022-10-21T07:00:45.201Z,11.50
2022-10-21T07:02:00.961Z,11.52
2022-10-21T07:02:46.186Z,11.55
2022-10-21T07:03:44.197Z,11.50
2022-10-21T07:04:44.154Z,11.44
2022-10-21T07:05:44.169Z,11.50
2022-10-21T07:06:44.161Z,11.59
2022-10-21T07:07:45.028Z,11.52
2022-10-21T07:08:47.170Z,11.57
2022-10-21T07:09:46.166Z,11.59
2022-10-21T07:10:44.116Z,11.63
2022-10-21T07:11:44.131Z,11.69
2022-10-21T07:12:44.134Z,11.65
2022-10-21T07:13:44.127Z,11.77
2022-10-21T07:14:44.150Z,11.77
2022-10-21T07:15:44.117Z,11.81
2022-10-21T07:16:44.050Z,11.81
2022-10-21T07:17:44.079Z,11.81
2022-10-21T07:18:44.038Z,11.84
2022-10-21T07:19:44.025Z,12.02
2022-10-21T07:20:44.025Z,12.04
2022-10-21T07:21:44.063Z,12.09
2022-10-21T07:22:44.022Z,12.17
2022-10-21T07:23:43.979Z,12.31
2022-10-21T07:24:44.027Z,12.15
2022-10-21T07:25:43.991Z,12.04
2022-10-21T07:26:43.982Z,12.04
2022-10-21T07:27:47.372Z,11.97
2022-10-21T07:28:43.978Z,11.88
2022-10-21T07:29:43.994Z,12.00
2022-10-21T07:30:43.944Z,12.03
2022-10-21T07:31:43.960Z,12.04
2022-10-21T07:32:43.917Z,12.20
2022-10-21T07:33:43.921Z,12.22
2022-10-21T07:34:43.947Z,12.27
2022-10-21T07:35:43.937Z,12.18
2022-10-21T07:36:43.903Z,12.25
2022-10-21T07:37:43.925Z,12.20
2022-10-21T07:38:43.905Z,12.31
2022-10-21T07:39:43.885Z,12.22
2022-10-21T07:40:43.885Z,12.32
2022-10-21T07:41:43.862Z,12.40
2022-10-21T07:42:43.863Z,12.37
2022-10-21T07:43:43.901Z,12.46
2022-10-21T07:44:43.852Z,12.49
2022-10-21T07:45:43.844Z,12.54
2022-10-21T07:46:43.818Z,12.61
2022-10-21T07:47:43.843Z,12.67
2022-10-21T07:48:43.827Z,12.75
2022-10-21T07:49:43.823Z,12.67
2022-10-21T07:50:43.797Z,12.80
2022-10-21T07:51:43.810Z,12.62
2022-10-21T07:52:49.625Z,12.54
2022-10-21T07:53:44.789Z,12.57
2022-10-21T07:54:43.795Z,12.64
2022-10-21T07:55:43.777Z,12.61
2022-10-21T07:56:43.774Z,12.79
2022-10-21T07:57:43.800Z,12.82
2022-10-21T07:58:43.754Z,12.75
2022-10-21T07:59:43.835Z,12.80
2022-10-21T08:00:43.743Z,12.78
2022-10-21T08:01:43.742Z,12.70
2022-10-21T08:02:43.746Z,12.61
2022-10-21T08:03:43.701Z,12.80
2022-10-21T08:04:43.738Z,12.75
2022-10-21T08:05:43.693Z,12.82
2022-10-21T08:06:43.696Z,12.83
2022-10-21T08:07:43.676Z,12.86
2022-10-21T08:08:43.689Z,12.78
2022-10-21T08:09:43.718Z,12.93
2022-10-21T08:10:43.678Z,12.93
2022-10-21T08:11:43.636Z,12.83
2022-10-21T08:12:43.636Z,12.86
2022-10-21T08:13:43.637Z,12.95
2022-10-21T08:14:43.627Z,13.00
2022-10-21T08:15:43.590Z,12.94
2022-10-21T08:16:43.611Z,12.87
2022-10-21T08:17:43.596Z,12.86
2022-10-21T08:18:43.580Z,12.91
2022-10-21T08:19:43.622Z,12.97
2022-10-21T08:20:43.561Z,13.01
2022-10-21T08:27:01.820Z,13.28
2022-10-21T10:29:29.259Z,14.23
2022-10-21T10:30:29.867Z,14.25
2022-10-21T10:32:04.147Z,14.32
2022-10-21T10:32:29.962Z,14.28
2022-10-21T10:33:30.073Z,14.41
2022-10-21T10:35:02.334Z,14.58
2022-10-21T10:35:29.834Z,14.54
2022-10-21T10:36:29.822Z,14.66
2022-10-21T10:37:30.648Z,14.84
2022-10-21T10:38:29.944Z,14.81
2022-10-21T10:39:29.905Z,14.94
2022-10-21T10:40:29.946Z,14.99
2022-10-21T10:41:29.840Z,15.00
2022-10-21T10:43:03.733Z,15.00
2022-10-21T10:43:29.791Z,15.02
2022-10-21T10:45:03.874Z,15.07
2022-10-21T10:45:29.904Z,15.09
2022-10-21T10:47:03.322Z,15.22
2022-10-21T10:47:29.704Z,15.24
2022-10-21T10:49:03.885Z,15.19
2022-10-21T10:49:29.757Z,15.15
2022-10-21T10:50:31.243Z,15.24
2022-10-21T10:51:30.490Z,15.21
2022-10-21T10:52:29.733Z,15.17
2022-10-21T10:53:29.740Z,15.17
2022-10-21T10:54:57.394Z,15.29
2022-10-21T10:55:29.744Z,15.27
2022-10-21T10:56:29.666Z,15.19
2022-10-21T10:57:39.122Z,15.18
2022-10-21T10:58:32.270Z,15.03
2022-10-21T10:59:30.308Z,15.06
2022-10-21T11:03:41.234Z,15.03
2022-10-21T11:04:39.001Z,14.99
2022-10-21T11:05:40.625Z,15.06
2022-10-21T11:07:12.110Z,14.96
2022-10-21T11:07:41.412Z,14.96
2022-10-21T11:08:39.770Z,14.96
2022-10-21T11:09:40.544Z,14.96
2022-10-21T11:10:39.687Z,14.97
2022-10-21T11:11:39.661Z,14.89
2022-10-21T11:13:33.287Z,14.92
2022-10-21T11:13:42.308Z,14.89
2022-10-21T11:14:40.666Z,14.94
2022-10-21T11:17:49.985Z,14.97
2022-10-21T11:18:51.878Z,15.00
2022-10-21T11:19:52.599Z,14.91
2022-10-21T11:20:52.252Z,15.07
2022-10-21T11:22:24.085Z,14.97
2022-10-21T11:22:52.805Z,15.00
2022-10-21T11:24:25.509Z,15.00
2022-10-21T11:24:52.062Z,15.00
2022-10-21T11:25:52.783Z,15.04
2022-10-21T11:26:51.862Z,15.15
2022-10-21T11:29:49.102Z,15.29
2022-10-21T11:30:57.728Z,15.35
2022-10-21T11:33:49.421Z,15.24
2022-10-21T11:34:49.528Z,15.35
2022-10-21T11:35:53.116Z,15.43
2022-10-21T11:36:52.602Z,15.43
2022-10-21T11:37:50.592Z,15.40
2022-10-21T11:38:50.800Z,15.35
2022-10-21T11:39:50.741Z,15.25
2022-10-21T11:41:27.161Z,15.25
2022-10-21T11:41:50.725Z,15.18
2022-10-21T11:43:23.116Z,15.21
2022-10-21T11:43:51.138Z,15.33
2022-10-21T11:44:50.512Z,15.43
2022-10-21T11:45:50.448Z,15.59
2022-10-21T11:50:14.497Z,15.73
2022-10-21T11:51:07.042Z,15.75
2022-10-21T11:52:16.373Z,15.80
2022-10-21T11:53:07.042Z,15.80
2022-10-21T12:06:31.252Z,16.26
2022-10-21T12:19:47.508Z,16.09
2022-10-21T12:20:47.462Z,15.92
2022-10-21T12:22:21.145Z,15.98
2022-10-21T12:23:22.246Z,16.05
2022-10-21T12:26:45.410Z,15.98
2022-10-21T12:27:45.454Z,16.00
2022-10-21T12:28:47.431Z,15.98
2022-10-21T12:29:46.757Z,15.94
2022-10-21T12:30:47.271Z,16.08
2022-10-21T12:31:47.528Z,16.02
2022-10-21T12:32:46.757Z,15.97
2022-10-21T12:33:46.789Z,16.08
2022-10-21T12:34:46.663Z,16.15
2022-10-21T12:35:46.685Z,16.17
2022-10-21T12:36:46.728Z,16.20
2022-10-21T12:37:47.439Z,16.15
2022-10-21T12:38:47.434Z,16.26
2022-10-21T12:39:47.825Z,16.39
2022-10-21T12:40:46.605Z,16.24
2022-10-21T12:41:46.591Z,16.16
2022-10-21T12:42:46.655Z,16.16
2022-10-21T12:43:46.524Z,16.20
2022-10-21T12:44:47.051Z,16.21
2022-10-21T12:45:46.566Z,16.28
2022-10-21T12:46:46.592Z,16.36
2022-10-21T12:47:46.565Z,16.32
2022-10-21T12:48:48.638Z,16.21
2022-10-21T12:51:45.261Z,16.38
2022-10-21T12:52:45.262Z,16.38
2022-10-21T12:53:47.085Z,16.21
2022-10-21T12:54:47.597Z,16.20
2022-10-21T12:55:46.809Z,16.24
2022-10-21T12:56:47.031Z,16.10
2022-10-21T12:57:46.442Z,16.02
2022-10-21T12:58:46.566Z,16.17
2022-10-21T12:59:49.393Z,16.20
2022-10-21T13:01:20.148Z,16.31
2022-10-21T13:05:14.583Z,16.32
2022-10-21T13:06:14.761Z,16.36
2022-10-21T13:07:17.090Z,16.38
2022-10-21T13:08:15.895Z,16.33
2022-10-21T13:09:15.944Z,16.24
2022-10-21T13:10:16.594Z,16.20
2022-10-21T13:11:16.595Z,16.24
2022-10-21T13:12:16.423Z,16.16
2022-10-21T13:13:17.106Z,16.10
2022-10-21T13:14:16.634Z,16.09
2022-10-21T13:15:16.263Z,16.13
2022-10-21T13:16:16.601Z,16.05
2022-10-21T13:17:16.297Z,16.23
2022-10-21T13:18:15.933Z,16.13
2022-10-21T13:19:15.785Z,16.04
2022-10-21T13:20:15.871Z,16.04
2022-10-21T13:21:18.306Z,16.01
2022-10-21T13:22:17.834Z,16.02
2022-10-21T13:23:15.768Z,16.01
2022-10-21T13:24:15.936Z,15.95
2022-10-21T13:25:16.777Z,16.02
2022-10-21T13:26:15.724Z,16.04
2022-10-21T13:27:16.602Z,16.15
2022-10-21T13:28:16.452Z,16.00
2022-10-21T13:29:16.572Z,16.02
2022-10-21T13:30:15.687Z,16.04
2022-10-21T13:31:15.592Z,16.08
2022-10-21T13:32:15.677Z,16.02
2022-10-21T13:33:15.656Z,15.98
2022-10-21T13:34:15.640Z,15.97
2022-10-21T13:35:16.101Z,16.05
2022-10-21T13:36:16.604Z,16.08
2022-10-21T13:37:15.784Z,16.15
2022-10-21T13:38:17.035Z,16.16
2022-10-21T13:39:15.674Z,16.15
2022-10-21T13:40:15.636Z,16.20
2022-10-21T13:41:16.099Z,16.15
2022-10-21T13:42:17.492Z,16.15
2022-10-21T13:43:17.084Z,16.20
2022-10-21T13:44:15.789Z,16.24
2022-10-21T13:45:15.998Z,16.36
2022-10-21T13:46:15.653Z,16.33
2022-10-21T13:47:15.971Z,16.31
2022-10-21T13:48:15.789Z,16.32
2022-10-21T13:49:15.755Z,16.38
2022-10-21T13:50:15.543Z,16.43
2022-10-21T13:51:17.105Z,16.43
2022-10-21T13:52:15.607Z,16.38
2022-10-21T13:53:15.564Z,16.35
2022-10-21T13:54:15.695Z,16.54
2022-10-21T13:55:15.479Z,16.54
2022-10-21T13:56:16.104Z,16.51
2022-10-21T13:57:16.105Z,16.65
2022-10-21T13:58:15.535Z,16.64
2022-10-21T13:59:15.417Z,16.64
2022-10-21T14:00:16.451Z,16.66
2022-10-21T14:01:15.547Z,16.60
2022-10-21T14:02:16.460Z,16.66
2022-10-21T14:03:15.420Z,16.66
2022-10-21T14:04:15.551Z,16.68
2022-10-21T14:05:15.428Z,16.69
2022-10-21T14:06:15.562Z,16.79
2022-10-21T14:07:15.443Z,16.83
2022-10-21T14:08:15.484Z,16.76
2022-10-21T14:09:16.145Z,16.66
2022-10-21T14:10:15.416Z,16.72
2022-10-21T14:11:15.770Z,16.76
2022-10-21T14:12:15.973Z,16.68
2022-10-21T14:13:15.435Z,16.65
2022-10-21T14:14:15.442Z,16.58
2022-10-21T14:15:15.301Z,16.65
2022-10-21T14:16:15.282Z,16.72
2022-10-21T14:17:16.118Z,16.71
2022-10-21T14:18:15.312Z,16.66
2022-10-21T14:19:15.330Z,16.74
2022-10-21T14:20:15.344Z,16.71
2022-10-21T14:24:12.537Z,16.50
2022-10-21T14:25:20.631Z,16.54
2022-10-21T14:26:12.014Z,16.57
2022-10-21T14:27:11.991Z,16.53
2022-10-21T14:28:11.974Z,16.46
2022-10-21T14:29:13.173Z,16.47
2022-10-21T14:30:13.150Z,16.47
2022-10-21T14:31:13.118Z,16.47
2022-10-21T14:32:13.103Z,16.36
2022-10-21T14:33:13.138Z,16.42
2022-10-21T14:34:13.103Z,16.47
2022-10-21T14:35:13.114Z,16.39
2022-10-21T14:36:14.059Z,16.46
2022-10-21T14:37:13.094Z,16.41
2022-10-21T14:38:13.097Z,16.49
2022-10-21T14:39:13.083Z,16.35
2022-10-21T14:40:13.107Z,16.32
2022-10-21T14:41:13.057Z,16.31
2022-10-21T14:42:13.040Z,16.42
2022-10-21T14:43:13.044Z,16.29
2022-10-21T14:44:13.032Z,16.41
2022-10-21T14:45:12.995Z,16.35
2022-10-21T14:46:13.011Z,16.46
2022-10-21T14:47:13.010Z,16.43
2022-10-21T14:48:12.992Z,16.38
2022-10-21T14:49:13.034Z,16.43
2022-10-21T14:50:13.337Z,16.43
2022-10-21T14:51:16.366Z,16.38
2022-10-21T14:52:13.949Z,16.39
2022-10-21T14:53:12.927Z,16.47
2022-10-21T14:54:12.918Z,16.46
2022-10-21T14:55:13.792Z,16.54
2022-10-21T14:56:13.781Z,16.46
2022-10-21T14:57:12.937Z,16.46
2022-10-21T14:58:12.929Z,16.47
2022-10-21T14:59:12.914Z,16.53
2022-10-21T15:00:12.934Z,16.46
2022-10-21T15:01:12.882Z,16.58
2022-10-21T15:02:12.879Z,16.57
2022-10-21T15:03:12.937Z,16.50
2022-10-21T15:04:12.895Z,16.53
2022-10-21T15:05:12.905Z,16.61
2022-10-21T15:06:12.910Z,16.56
2022-10-21T15:07:12.962Z,16.66
2022-10-21T15:08:12.887Z,16.71
2022-10-21T15:09:12.881Z,16.58
2022-10-21T15:10:18.687Z,16.65
2022-10-21T15:11:12.820Z,16.65
2022-10-21T15:12:12.786Z,16.60
2022-10-21T15:13:12.800Z,16.64
2022-10-21T15:14:12.781Z,16.64
2022-10-21T15:15:12.771Z,16.56
2022-10-21T15:16:12.755Z,16.65
2022-10-21T15:17:12.800Z,16.64
2022-10-21T15:18:12.772Z,16.57
2022-10-21T15:19:12.789Z,16.65
2022-10-21T15:20:12.727Z,16.68
2022-10-21T15:21:12.749Z,16.65
2022-10-21T15:22:12.722Z,16.71
2022-10-21T15:23:12.859Z,16.74
2022-10-21T15:24:13.706Z,16.72
2022-10-21T15:25:12.734Z,16.74
2022-10-21T15:26:12.746Z,16.64
2022-10-21T15:27:12.681Z,16.64
2022-10-21T15:28:12.679Z,16.64
2022-10-21T15:29:12.662Z,16.56
2022-10-21T15:30:12.679Z,16.68
2022-10-21T15:31:12.660Z,16.57
2022-10-21T15:32:12.681Z,16.53
2022-10-21T15:33:12.648Z,16.54
2022-10-21T15:34:12.621Z,16.57
2022-10-21T15:35:12.618Z,16.53
2022-10-21T15:36:12.673Z,16.46
2022-10-21T15:37:12.630Z,16.47
2022-10-21T15:38:12.637Z,16.43
2022-10-21T15:39:12.584Z,16.43
2022-10-21T15:40:12.565Z,16.46
2022-10-21T15:41:12.583Z,16.53
2022-10-21T15:42:12.554Z,16.49
2022-10-21T15:43:12.624Z,16.39
2022-10-21T15:44:12.529Z,16.39
2022-10-21T15:45:13.516Z,16.49
2022-10-21T15:46:12.544Z,16.39
2022-10-21T15:47:12.570Z,16.39
2022-10-21T15:48:12.550Z,16.47
2022-10-21T15:49:12.542Z,16.38
2022-10-21T15:50:12.527Z,16.43
2022-10-21T15:51:12.507Z,16.38
2022-10-21T15:52:12.532Z,16.42
2022-10-21T15:53:12.574Z,16.42
2022-10-21T15:54:12.515Z,16.41
2022-10-21T15:55:12.463Z,16.36
2022-10-21T15:56:12.469Z,16.36
2022-10-21T15:57:12.535Z,16.43
2022-10-21T15:58:12.452Z,16.35
2022-10-21T15:59:12.481Z,16.28
2022-10-21T16:00:12.399Z,16.20
2022-10-21T16:01:12.562Z,16.24
2022-10-21T16:02:15.445Z,16.21
2022-10-21T16:03:12.427Z,16.20
2022-10-21T16:04:12.402Z,16.24
2022-10-21T16:05:12.449Z,16.12
2022-10-21T16:06:12.399Z,16.05
2022-10-21T16:07:12.358Z,16.01
2022-10-21T16:08:12.378Z,16.02
2022-10-21T16:09:14.704Z,16.09
2022-10-21T16:10:13.371Z,15.95
2022-10-21T16:12:13.345Z,15.90
2022-10-21T16:13:12.378Z,16.04
2022-10-21T16:14:12.302Z,15.91
2022-10-21T16:15:12.297Z,15.97
2022-10-21T16:16:12.315Z,15.84
2022-10-21T16:17:12.287Z,15.88
2022-10-21T16:18:12.310Z,15.80
2022-10-21T16:19:12.290Z,15.82
2022-10-21T16:20:12.276Z,15.79
2022-10-21T16:21:13.377Z,15.86
2022-10-21T16:22:12.251Z,15.73
2022-10-21T16:23:12.268Z,15.76
2022-10-21T16:24:12.256Z,15.73
2022-10-21T16:25:12.254Z,15.62
2022-10-21T16:26:12.247Z,15.64
2022-10-21T16:27:12.229Z,15.59
2022-10-21T16:28:12.254Z,15.58
2022-10-21T16:29:12.381Z,15.54
2022-10-21T16:30:12.212Z,15.52
2022-10-21T16:31:12.168Z,15.39
2022-10-21T16:32:12.168Z,15.43
2022-10-21T16:33:12.190Z,15.44
2022-10-21T16:34:12.152Z,15.37
2022-10-21T16:35:12.177Z,15.35
2022-10-21T16:36:12.638Z,15.36
2022-10-21T16:37:12.156Z,15.31
2022-10-21T16:38:12.442Z,15.39
2022-10-21T16:39:12.174Z,15.39
2022-10-21T16:40:12.101Z,15.29
2022-10-21T16:41:12.088Z,15.29
2022-10-21T16:42:12.122Z,15.29
2022-10-21T16:43:12.100Z,15.27
2022-10-21T16:44:12.190Z,15.25
2022-10-21T16:45:12.074Z,15.29
2022-10-21T16:46:12.085Z,15.18
2022-10-21T16:47:12.159Z,15.17
2022-10-21T16:48:12.058Z,15.25
2022-10-21T16:49:12.936Z,15.19
2022-10-21T16:50:13.051Z,15.21
2022-10-21T16:51:12.022Z,15.27
2022-10-21T16:52:12.035Z,15.27
2022-10-21T16:53:12.004Z,15.18
2022-10-21T16:54:11.987Z,15.22
2022-10-21T16:55:12.024Z,15.14
2022-10-21T16:56:12.019Z,15.14
2022-10-21T16:57:12.007Z,15.15
2022-10-21T16:58:11.980Z,15.15
2022-10-21T16:59:11.984Z,15.06
2022-10-21T17:00:11.954Z,15.11
2022-10-21T17:01:12.059Z,15.10
2022-10-21T17:02:11.946Z,15.14
2022-10-21T17:03:11.930Z,15.11
2022-10-21T17:04:11.939Z,15.06
2022-10-21T17:05:11.919Z,15.09
2022-10-21T17:06:12.000Z,15.06
2022-10-21T17:07:11.951Z,15.04
2022-10-21T17:08:12.648Z,15.00
2022-10-21T17:09:12.084Z,15.04
2022-10-21T17:10:11.886Z,15.06
2022-10-21T17:11:13.108Z,15.14
2022-10-21T17:12:11.913Z,15.03
2022-10-21T17:13:11.873Z,15.14
2022-10-21T17:14:11.900Z,15.00
2022-10-21T17:15:11.827Z,15.15
2022-10-21T17:16:11.833Z,15.14
2022-10-21T17:17:11.820Z,15.10
2022-10-21T17:18:15.407Z,15.07
2022-10-21T17:19:12.833Z,15.06
2022-10-21T17:20:11.800Z,15.06
2022-10-21T17:21:11.806Z,15.04
2022-10-21T17:22:11.785Z,15.06
2022-10-21T17:23:12.329Z,15.09
2022-10-21T17:24:11.770Z,15.09
2022-10-21T17:25:11.788Z,15.09
2022-10-21T17:26:11.814Z,15.15
2022-10-21T17:27:14.663Z,15.10
2022-10-21T17:28:12.812Z,15.18
2022-10-21T17:29:11.790Z,15.04
2022-10-21T17:30:11.728Z,15.21
2022-10-21T17:31:11.730Z,15.11
2022-10-21T17:32:11.754Z,15.02
2022-10-21T17:33:14.110Z,15.10
2022-10-21T17:34:11.703Z,15.07
2022-10-21T17:35:11.708Z,15.02
2022-10-21T17:36:11.658Z,15.03
2022-10-21T17:37:11.777Z,14.99
2022-10-21T17:38:11.762Z,14.97
2022-10-21T17:39:11.750Z,14.97
2022-10-21T17:40:11.700Z,14.99
2022-10-21T17:41:11.659Z,15.06
2022-10-21T17:42:11.620Z,14.99
2022-10-21T17:43:11.672Z,15.04
2022-10-21T17:44:11.718Z,15.06
2022-10-21T17:45:11.633Z,15.06
2022-10-21T17:46:13.117Z,15.06
2022-10-21T17:47:11.687Z,15.07
2022-10-21T17:48:11.655Z,15.03
2022-10-21T17:49:11.619Z,15.07
2022-10-21T17:50:13.797Z,15.03
2022-10-21T17:51:11.670Z,14.99
2022-10-21T17:52:11.567Z,15.02
2022-10-21T17:53:12.208Z,14.99
2022-10-21T17:54:11.570Z,14.97
2022-10-21T17:55:11.650Z,15.02
2022-10-21T17:56:11.570Z,15.00
2022-10-21T17:57:11.583Z,14.99
2022-10-21T17:58:11.518Z,14.99
2022-10-21T17:59:12.413Z,15.00
2022-10-21T18:00:11.538Z,15.02
2022-10-21T18:01:11.618Z,15.10
2022-10-21T18:02:11.536Z,15.00
2022-10-21T18:03:11.506Z,14.97
2022-10-21T18:04:11.463Z,15.06